Time;durP1;ratioP1;P1;durP2;ratioP2;P2;SDS_P1;SDS_P2;PMS_P1;PMS_P2;Temp;Humidity;BMP_temperature;BMP_pressure;BME280_temperature;BME280_humidity;BME280_pressure;Samples;Min_cycle;Max_cycle;Signal;HPM_P1;HPM_P2
2023/07/27 00:01:23;;;;;;;4.45;3.72;;;;;;;12.46;100.00;100192.91;7776622;22;20542;-96
2023/07/27 00:04:29;;;;;;;4.28;3.40;;;;;;;12.46;100.00;100187.72;7751146;22;20027;-96
2023/07/27 00:07:38;;;;;;;5.50;3.60;;;;;;;12.46;100.00;100185.13;7776444;22;20020;-96
2023/07/27 00:10:41;;;;;;;4.70;3.67;;;;;;;12.42;100.00;100182.00;7748613;22;20015;-96
2023/07/27 00:13:48;;;;;;;5.00;3.65;;;;;;;12.40;100.00;100181.31;7749544;22;20016;-96
2023/07/27 00:16:51;;;;;;;5.07;3.80;;;;;;;12.40;100.00;100180.50;7748724;22;20361;-96
2023/07/27 00:19:54;;;;;;;5.32;4.00;;;;;;;12.34;100.00;100184.47;7748567;22;20027;-96
2023/07/27 00:22:57;;;;;;;7.78;4.35;;;;;;;12.32;100.00;100178.59;7775480;22;20050;-95
2023/07/27 00:26:05;;;;;;;5.95;4.15;;;;;;;12.32;100.00;100177.78;7749379;22;20016;-96
2023/07/27 00:29:07;;;;;;;7.97;5.20;;;;;;;12.31;100.00;100166.59;7777264;22;20462;-96
2023/07/27 00:32:11;;;;;;;7.03;4.47;;;;;;;12.27;100.00;100170.41;7775850;22;20019;-96
2023/07/27 00:35:13;;;;;;;6.65;4.63;;;;;;;12.25;100.00;100167.16;7776620;22;20027;-96
2023/07/27 00:38:17;;;;;;;6.22;4.20;;;;;;;12.21;100.00;100158.03;7724707;22;20027;-95
2023/07/27 00:41:23;;;;;;;7.13;4.60;;;;;;;12.18;100.00;100164.31;7749492;22;20572;-96
2023/07/27 00:44:29;;;;;;;5.78;4.22;;;;;;;12.19;100.00;100154.75;7748557;22;20141;-96
2023/07/27 00:47:32;;;;;;;7.53;4.57;;;;;;;12.17;100.00;100156.66;7748901;22;20026;-96
2023/07/27 00:50:37;;;;;;;6.00;4.50;;;;;;;12.13;100.00;100153.53;7775480;22;20378;-96
2023/07/27 00:53:39;;;;;;;6.38;4.55;;;;;;;12.10;100.00;100151.22;7775630;22;20361;-95
2023/07/27 00:56:45;;;;;;;6.13;4.38;;;;;;;12.07;100.00;100149.72;7748009;22;20035;-96
2023/07/27 00:59:51;;;;;;;6.43;4.80;;;;;;;12.06;100.00;100144.66;7776194;22;20020;-96
2023/07/27 01:02:55;;;;;;;7.25;4.95;;;;;;;12.05;100.00;100135.25;7748522;22;20346;-96
2023/07/27 01:06:01;;;;;;;7.80;5.18;;;;;;;12.04;100.00;100144.00;7775572;22;20112;-96
2023/07/27 01:09:03;;;;;;;7.90;5.25;;;;;;;12.05;100.00;100135.25;7774376;22;20031;-96
2023/07/27 01:12:42;;;;;;;7.63;5.50;;;;;;;12.06;100.00;100129.09;7775699;22;20026;-96
2023/07/27 01:15:58;;;;;;;8.82;5.45;;;;;;;12.06;100.00;100126.50;7715212;22;20031;-96
2023/07/27 01:19:33;;;;;;;7.35;5.30;;;;;;;12.10;100.00;100130.47;7777293;22;20144;-95
2023/07/27 01:23:13;;;;;;;5.78;4.82;;;;;;;12.13;100.00;100131.97;7748303;22;20503;-95
2023/07/27 01:26:32;;;;;;;6.85;5.00;;;;;;;12.13;100.00;100117.22;7749212;22;20480;-96
2023/07/27 01:29:52;;;;;;;8.25;5.38;;;;;;;12.15;100.00;100115.28;7775877;22;20020;-96
2023/07/27 01:33:24;;;;;;;6.97;4.40;;;;;;;12.14;100.00;100107.66;7723363;22;20485;-95
2023/07/27 01:36:36;;;;;;;6.65;4.50;;;;;;;12.12;100.00;100099.19;7658246;23;20070;-96
2023/07/27 01:39:43;;;;;;;;;;;;;;;12.08;100.00;100096.06;7635196;23;20025;-96
2023/07/27 01:42:47;;;;;;;6.10;4.63;;;;;;;12.10;100.00;100093.31;7633298;23;19927;-96
2023/07/27 01:45:51;;;;;;;7.18;4.95;;;;;;;12.10;100.00;100095.91;7655794;23;20028;-95
2023/07/27 01:48:56;;;;;;;7.50;5.05;;;;;;;12.09;100.00;100097.69;7656042;23;20463;-96
2023/07/27 01:51:58;;;;;;;6.15;5.22;;;;;;;12.10;100.00;100093.31;7609516;23;20065;-95
2023/07/27 01:55:02;;;;;;;7.32;4.97;;;;;;;12.13;100.00;100088.66;7608897;23;20069;-95
2023/07/27 01:58:05;;;;;;;9.65;4.85;;;;;;;12.21;100.00;100083.56;7633985;23;20028;-96
2023/07/27 02:01:08;;;;;;;7.22;5.20;;;;;;;12.31;100.00;100077.53;7608856;23;20025;-95
2023/07/27 02:04:12;;;;;;;5.80;4.70;;;;;;;12.33;100.00;100075.63;7661205;23;20048;-96
2023/07/27 02:07:17;;;;;;;8.27;5.68;;;;;;;12.29;100.00;100070.69;7635324;23;20108;-95
2023/07/27 02:10:23;;;;;;;7.05;4.75;;;;;;;12.22;100.00;100066.22;7635727;23;20590;-96
2023/07/27 02:13:42;;;;;;;7.38;5.20;;;;;;;12.18;100.00;100060.53;7734947;22;20023;-96
2023/07/27 02:16:52;;;;;;;7.45;4.70;;;;;;;12.13;100.00;100061.91;7750609;22;20327;-95
2023/07/27 02:20:04;;;;;;;6.68;4.20;;;;;;;12.06;100.00;100054.69;7778781;22;20024;-96
2023/07/27 02:23:07;;;;;;;8.35;4.63;;;;;;;12.02;100.00;100053.34;7750015;22;20097;-96
2023/07/27 02:26:10;;;;;;;6.68;4.55;;;;;;;12.00;100.00;100059.63;7778470;22;20020;-96
2023/07/27 02:29:12;;;;;;;9.60;5.20;;;;;;;12.00;100.00;100054.44;7750706;22;20448;-95
2023/07/27 02:32:17;;;;;;;7.10;4.50;;;;;;;12.00;100.00;100042.28;7750443;22;20083;-96
2023/07/27 02:35:20;;;;;;;6.78;4.85;;;;;;;12.04;100.00;100042.81;7749675;22;20030;-96
2023/07/27 02:38:30;;;;;;;6.63;4.35;;;;;;;12.05;100.00;100034.91;7750198;22;20461;-96
2023/07/27 02:41:38;;;;;;;9.63;4.88;;;;;;;12.10;100.00;100038.81;7750282;22;20406;-96
2023/07/27 02:44:48;;;;;;;5.82;4.65;;;;;;;12.08;100.00;100041.59;7726832;22;20070;-96
2023/07/27 02:47:50;;;;;;;5.88;4.68;;;;;;;12.07;100.00;100035.59;7776147;22;20166;-96
2023/07/27 02:50:53;;;;;;;6.63;5.00;;;;;;;12.05;100.00;100027.13;7777547;22;20030;-96
2023/07/27 02:53:56;;;;;;;8.35;4.90;;;;;;;12.02;100.00;100022.22;7750086;22;20024;-95
2023/07/27 02:57:03;;;;;;;5.57;4.35;;;;;;;12.00;100.00;100024.13;7749072;22;20027;-95
2023/07/27 03:00:14;;;;;;;7.85;4.90;;;;;;;11.99;100.00;100014.72;7748856;22;20011;-96
2023/07/27 03:03:21;;;;;;;6.90;4.55;;;;;;;12.01;100.00;100017.16;7749788;22;20012;-96
2023/07/27 03:06:25;;;;;;;6.43;4.50;;;;;;;12.00;100.00;100007.72;7750404;22;20024;-96
2023/07/27 03:09:33;;;;;;;5.75;4.47;;;;;;;12.02;100.00;100011.00;7750260;22;20029;-96
2023/07/27 03:12:35;;;;;;;6.20;4.57;;;;;;;11.99;100.00;100001.75;7776381;22;20026;-95
2023/07/27 03:15:40;;;;;;;7.20;5.03;;;;;;;12.04;100.00;100004.72;7777212;22;20022;-96
2023/07/27 03:18:44;;;;;;;7.68;5.07;;;;;;;12.06;100.00;100002.81;7724157;22;20030;-96
2023/07/27 03:21:48;;;;;;;6.63;5.35;;;;;;;12.10;100.00;100005.94;7725769;22;20502;-95
2023/07/27 03:24:51;;;;;;;5.90;4.53;;;;;;;12.09;100.00;99985.31;7750474;22;20473;-96
2023/07/27 03:27:53;;;;;;;6.65;4.95;;;;;;;12.07;100.00;99993.22;7750156;22;20104;-96
2023/07/27 03:30:55;;;;;;;5.78;5.00;;;;;;;12.06;100.00;99987.22;7750469;22;20031;-96
2023/07/27 03:33:58;;;;;;;7.47;4.68;;;;;;;12.12;100.00;99990.22;7750496;22;20466;-96
2023/07/27 03:37:01;;;;;;;8.85;4.60;;;;;;;12.18;100.00;99987.06;7776723;22;20019;-96
2023/07/27 03:40:04;;;;;;;6.68;5.00;;;;;;;12.23;100.00;99987.44;7776879;22;20077;-96
2023/07/27 03:43:07;;;;;;;6.13;4.35;;;;;;;12.31;100.00;99984.13;7749302;22;20098;-96
2023/07/27 03:46:09;;;;;;;6.97;4.75;;;;;;;12.35;100.00;99973.28;7748665;22;20026;-96
2023/07/27 03:49:11;;;;;;;6.93;4.55;;;;;;;12.43;100.00;99972.56;7749924;22;20556;-96
2023/07/27 03:52:13;;;;;;;6.07;4.70;;;;;;;12.52;100.00;99971.69;7749477;22;20034;-95
2023/07/27 03:55:20;;;;;;;7.82;4.50;;;;;;;12.60;100.00;99968.34;7750181;22;20019;-96
2023/07/27 03:58:23;;;;;;;6.60;4.40;;;;;;;12.67;100.00;99975.41;7748471;22;20092;-96
2023/07/27 04:01:36;;;;;;;5.57;4.03;;;;;;;12.75;100.00;99966.88;7749174;22;20020;-95
2023/07/27 04:04:39;;;;;;;5.65;4.38;;;;;;;12.82;100.00;99967.06;7723424;22;20026;-96
2023/07/27 04:07:43;;;;;;;5.40;4.03;;;;;;;12.89;100.00;99968.09;7776115;22;20046;-95
2023/07/27 04:10:49;;;;;;;7.15;4.15;;;;;;;12.97;100.00;99973.38;7776253;22;20020;-96
2023/07/27 04:13:52;;;;;;;5.65;4.57;;;;;;;13.03;100.00;99966.75;7777066;22;20100;-96
2023/07/27 04:16:54;;;;;;;6.25;4.30;;;;;;;13.11;100.00;99961.63;7749367;22;20354;-96
2023/07/27 04:19:58;;;;;;;5.57;4.40;;;;;;;13.20;100.00;99962.50;7776665;22;20024;-96
2023/07/27 04:23:02;;;;;;;5.95;4.32;;;;;;;13.28;100.00;99957.38;7775790;22;20016;-96
2023/07/27 04:26:05;;;;;;;8.73;4.93;;;;;;;13.34;100.00;99959.34;7749236;22;20030;-95
2023/07/27 04:29:07;;;;;;;5.55;4.35;;;;;;;13.38;100.00;99952.91;7748553;22;20038;-96
2023/07/27 04:32:10;;;;;;;5.35;4.60;;;;;;;13.43;100.00;99953.25;7775532;22;20093;-96
2023/07/27 04:35:13;;;;;;;7.13;4.63;;;;;;;13.49;100.00;99951.81;7748080;22;20028;-96
2023/07/27 04:38:15;;;;;;;5.35;4.13;;;;;;;13.56;100.00;99945.88;7748429;22;20024;-96
2023/07/27 04:41:25;;;;;;;7.15;4.63;;;;;;;13.64;100.00;99933.84;7725033;22;20485;-96
2023/07/27 04:44:27;;;;;;;5.65;4.32;;;;;;;13.72;100.00;99926.91;7723048;22;20031;-96
2023/07/27 04:47:31;;;;;;;8.95;4.18;;;;;;;13.80;100.00;99926.13;7748528;22;20023;-96
2023/07/27 04:50:35;;;;;;;5.53;4.20;;;;;;;13.84;100.00;99926.63;7747841;22;20109;-96
2023/07/27 04:53:39;;;;;;;6.10;4.32;;;;;;;13.86;100.00;99925.47;7776807;22;20020;-95
2023/07/27 04:56:44;;;;;;;5.32;4.10;;;;;;;13.89;100.00;99925.19;7747732;22;20393;-96
2023/07/27 04:59:48;;;;;;;5.10;3.65;;;;;;;13.93;100.00;99918.69;7748307;22;20023;-96
2023/07/27 05:02:54;;;;;;;5.40;4.00;;;;;;;13.94;100.00;99919.53;7721753;22;20020;-96
2023/07/27 05:05:56;;;;;;;6.25;3.58;;;;;;;13.95;100.00;99924.53;7721558;22;20024;-96
2023/07/27 05:08:59;;;;;;;6.55;3.90;;;;;;;13.97;100.00;99922.59;7748808;22;20024;-96
2023/07/27 05:12:01;;;;;;;6.88;4.05;;;;;;;13.98;100.00;99921.63;7775211;22;20198;-96
2023/07/27 05:15:04;;;;;;;6.25;3.90;;;;;;;14.00;100.00;99911.88;7774733;22;20458;-96
2023/07/27 05:18:06;;;;;;;4.95;3.72;;;;;;;13.99;100.00;99919.84;7776129;22;20026;-96
2023/07/27 05:21:11;;;;;;;5.10;3.42;;;;;;;14.01;100.00;99917.88;7775392;22;20516;-96
2023/07/27 05:24:15;;;;;;;6.03;3.65;;;;;;;14.05;100.00;99921.81;7775655;22;20484;-95
2023/07/27 05:27:18;;;;;;;5.18;3.40;;;;;;;14.13;100.00;99928.81;7747719;22;20016;-96
2023/07/27 05:30:20;;;;;;;6.65;3.20;;;;;;;14.13;100.00;99927.03;7722751;22;20503;-96
2023/07/27 05:33:24;;;;;;;3.63;3.10;;;;;;;14.17;100.00;99927.53;7748395;22;20019;-96
2023/07/27 05:36:28;;;;;;;5.03;2.83;;;;;;;14.20;100.00;99928.03;7748573;22;20023;-96
2023/07/27 05:39:35;;;;;;;5.35;3.17;;;;;;;14.24;100.00;99923.34;7778717;22;20026;-96
2023/07/27 05:42:39;;;;;;;4.93;3.40;;;;;;;14.28;100.00;99922.03;7751060;22;20027;-96
2023/07/27 05:45:41;;;;;;;3.63;3.05;;;;;;;14.39;100.00;99916.53;7750759;22;20615;-96
2023/07/27 05:48:43;;;;;;;3.58;2.83;;;;;;;14.57;100.00;99919.00;7778108;22;20023;-96
2023/07/27 05:51:46;;;;;;;5.03;3.30;;;;;;;14.76;100.00;99912.66;7777910;22;20023;-96
2023/07/27 05:54:48;;;;;;;4.03;3.05;;;;;;;14.95;100.00;99915.91;7778574;22;20022;-95
2023/07/27 05:57:51;;;;;;;4.82;3.10;;;;;;;15.06;100.00;99910.38;7750600;22;20354;-96
2023/07/27 06:01:01;;;;;;;2.90;2.50;;;;;;;15.11;100.00;99909.88;7778243;22;20157;-95
2023/07/27 06:04:04;;;;;;;4.88;2.65;;;;;;;15.13;100.00;99913.09;7777621;22;20019;-96
2023/07/27 06:07:09;;;;;;;4.57;3.10;;;;;;;15.15;100.00;99906.75;7778002;22;20019;-96
2023/07/27 06:10:12;;;;;;;3.63;2.90;;;;;;;15.21;100.00;99903.47;7750438;22;20026;-96
2023/07/27 06:13:14;;;;;;;3.65;2.60;;;;;;;15.24;100.00;99899.72;7777798;22;20311;-96
2023/07/27 06:16:18;;;;;;;4.65;2.78;;;;;;;15.31;100.00;99899.88;7776982;22;20027;-96
2023/07/27 06:19:21;;;;;;;4.72;2.90;;;;;;;15.36;100.00;99903.59;7750212;22;20031;-96
2023/07/27 06:22:24;;;;;;;5.07;2.80;;;;;;;15.41;100.00;99896.09;7776497;22;20405;-96
2023/07/27 06:25:26;;;;;;;4.38;2.70;;;;;;;15.48;100.00;99897.06;7777696;22;20337;-96
2023/07/27 06:28:37;;;;;;;6.43;2.95;;;;;;;15.59;100.00;99882.81;7777206;22;20047;-96
2023/07/27 06:31:39;;;;;;;4.07;2.67;;;;;;;15.66;100.00;99886.38;7749332;22;20119;-95
2023/07/27 06:34:43;;;;;;;4.97;2.60;;;;;;;15.75;100.00;99891.56;7778059;22;20023;-96
2023/07/27 06:37:47;;;;;;;3.00;2.70;;;;;;;15.75;100.00;99892.41;7778098;22;20101;-96
2023/07/27 06:40:52;;;;;;;4.22;2.80;;;;;;;15.75;100.00;99902.00;7777969;22;20019;-96
2023/07/27 06:44:03;;;;;;;5.70;2.90;;;;;;;15.78;100.00;99897.28;7777745;22;20015;-96
2023/07/27 06:47:06;;;;;;;5.15;3.13;;;;;;;15.86;100.00;99896.44;7748107;22;20541;-96
2023/07/27 06:50:09;;;;;;;5.38;2.95;;;;;;;15.87;100.00;99885.00;7777631;22;20715;-96
2023/07/27 06:53:11;;;;;;;6.00;2.83;;;;;;;15.93;100.00;99886.94;7751377;22;20069;-96
2023/07/27 06:56:14;;;;;;;3.65;2.50;;;;;;;15.92;100.00;99890.50;7751787;22;20161;-96
2023/07/27 06:59:17;;;;;;;5.35;2.80;;;;;;;15.90;100.00;99895.13;7780094;22;20020;-96
2023/07/27 07:02:19;;;;;;;5.10;2.80;;;;;;;15.86;100.00;99891.22;7777319;22;20022;-95
2023/07/27 07:05:22;;;;;;;3.00;2.70;;;;;;;15.82;100.00;99888.13;7747462;22;20027;-96
2023/07/27 07:08:24;;;;;;;2.92;2.60;;;;;;;15.78;100.00;99886.03;7775285;22;20022;-96
2023/07/27 07:11:29;;;;;;;3.30;2.75;;;;;;;15.72;100.00;99884.91;7749845;22;20027;-96
2023/07/27 07:14:32;;;;;;;3.33;2.97;;;;;;;15.70;100.00;99884.25;7724495;22;20020;-95
2023/07/27 07:17:38;;;;;;;3.90;2.75;;;;;;;15.69;100.00;99880.84;7751705;22;20426;-96
2023/07/27 07:20:40;;;;;;;4.70;2.88;;;;;;;15.66;100.00;99877.75;7750292;22;20024;-96
2023/07/27 07:23:43;;;;;;;4.00;3.03;;;;;;;15.61;100.00;99870.41;7754855;22;20032;-96
2023/07/27 07:26:45;;;;;;;3.67;2.45;;;;;;;15.52;100.00;99866.22;7728558;22;20109;-96
2023/07/27 07:29:48;;;;;;;4.00;2.80;;;;;;;15.44;100.00;99868.84;7778894;22;20051;-95
2023/07/27 07:32:50;;;;;;;5.30;3.17;;;;;;;15.45;100.00;99870.47;7751327;22;20366;-96
2023/07/27 07:35:56;;;;;;;5.43;3.10;;;;;;;15.49;100.00;99861.34;7752456;22;20034;-96
2023/07/27 07:38:58;;;;;;;5.68;3.25;;;;;;;15.44;100.00;99871.47;7787857;22;20020;-96
2023/07/27 07:42:01;;;;;;;4.13;2.83;;;;;;;15.41;100.00;99874.41;7786660;22;20031;-96
2023/07/27 07:45:04;;;;;;;4.15;2.70;;;;;;;15.40;100.00;99860.56;7752703;22;20475;-95
2023/07/27 07:48:07;;;;;;;5.05;3.50;;;;;;;15.41;100.00;99856.97;7752957;22;20058;-95
2023/07/27 07:51:14;;;;;;;3.55;3.22;;;;;;;15.53;100.00;99857.41;7778819;22;20023;-96
2023/07/27 07:54:16;;;;;;;7.10;3.60;;;;;;;15.63;100.00;99859.81;7751766;22;20019;-96
2023/07/27 07:57:20;;;;;;;4.70;3.00;;;;;;;15.71;100.00;99847.56;7750965;22;20441;-96
2023/07/27 08:00:22;;;;;;;4.05;3.10;;;;;;;15.74;100.00;99845.59;7778506;22;20091;-96
2023/07/27 08:03:25;;;;;;;6.57;3.42;;;;;;;15.75;100.00;99836.78;7746951;22;20019;-96
2023/07/27 08:06:27;;;;;;;5.38;3.40;;;;;;;15.75;100.00;99835.00;7777439;22;20082;-96
2023/07/27 08:09:29;;;;;;;5.55;3.38;;;;;;;15.75;100.00;99829.78;7725775;22;20405;-96
2023/07/27 08:12:32;;;;;;;5.35;3.40;;;;;;;15.78;100.00;99819.00;7776121;22;20023;-96
2023/07/27 08:15:34;;;;;;;5.53;3.30;;;;;;;15.80;100.00;99819.66;7725870;22;20441;-96
2023/07/27 08:18:39;;;;;;;5.20;3.05;;;;;;;15.83;100.00;99805.44;7779165;22;20030;-96
2023/07/27 08:21:42;;;;;;;6.75;3.38;;;;;;;15.82;100.00;99788.13;7751140;22;20624;-96
2023/07/27 08:24:44;;;;;;;5.78;4.32;;;;;;;15.90;100.00;99794.13;7726333;22;20457;-96
2023/07/27 08:27:50;;;;;;;5.38;3.53;;;;;;;15.97;100.00;99781.19;7778603;22;20043;-96
2023/07/27 08:30:56;;;;;;;5.50;3.50;;;;;;;16.03;100.00;99777.88;7750944;22;20028;-96
2023/07/27 08:33:59;;;;;;;4.80;3.28;;;;;;;16.17;100.00;99775.47;7749971;22;20026;-95
2023/07/27 08:37:01;;;;;;;6.82;3.40;;;;;;;16.31;100.00;99770.28;7750818;22;20145;-96
2023/07/27 08:40:08;;;;;;;5.60;3.17;;;;;;;16.45;100.00;99760.06;7777497;22;20024;-96
2023/07/27 08:43:15;;;;;;;5.68;3.33;;;;;;;16.54;100.00;99754.56;7778557;22;20030;-96
2023/07/27 08:46:19;;;;;;;4.53;3.58;;;;;;;16.52;100.00;99751.34;7750870;22;20019;-96
2023/07/27 08:49:21;;;;;;;5.22;3.30;;;;;;;16.47;100.00;99745.84;7725165;22;20939;-96
2023/07/27 08:52:24;;;;;;;5.28;3.97;;;;;;;16.46;100.00;99740.78;7751175;22;20019;-96
2023/07/27 08:55:27;;;;;;;4.18;3.38;;;;;;;16.53;100.00;99742.50;7779081;22;20015;-96
2023/07/27 08:58:30;;;;;;;4.57;3.30;;;;;;;16.50;100.00;99737.63;7750260;22;20016;-96
2023/07/27 09:01:42;;;;;;;6.75;3.47;;;;;;;16.45;100.00;99737.38;7776405;22;20023;-96
2023/07/27 09:04:45;;;;;;;6.03;3.50;;;;;;;16.58;100.00;99740.16;7775801;22;20046;-96
2023/07/27 09:08:05;;;;;;;4.90;3.53;;;;;;;16.82;100.00;99734.84;7750516;22;20050;-96
2023/07/27 09:11:12;;;;;;;7.40;3.50;;;;;;;17.05;100.00;99726.94;7778186;22;20081;-96
2023/07/27 09:14:19;;;;;;;4.40;3.55;;;;;;;17.21;100.00;99730.13;7749942;22;20349;-96
2023/07/27 09:17:23;;;;;;;6.13;3.72;;;;;;;17.35;100.00;99727.66;7778032;22;20050;-96
2023/07/27 09:20:25;;;;;;;5.00;3.42;;;;;;;17.46;100.00;99721.13;7750130;22;20533;-95
2023/07/27 09:23:30;;;;;;;5.88;3.42;;;;;;;17.51;100.00;99716.94;7777542;22;20026;-96
2023/07/27 09:26:34;;;;;;;7.38;3.78;;;;;;;17.36;100.00;99711.75;7749976;22;20665;-96
2023/07/27 09:29:40;;;;;;;4.25;3.60;;;;;;;17.14;100.00;99715.34;7725444;22;20022;-96
2023/07/27 09:32:43;;;;;;;8.43;3.90;;;;;;;16.92;100.00;99714.50;7749977;22;20065;-96
2023/07/27 09:35:49;;;;;;;5.60;3.97;;;;;;;16.64;100.00;99712.47;7749884;22;20023;-96
2023/07/27 09:38:53;;;;;;;7.20;4.03;;;;;;;16.34;100.00;99716.88;7777944;22;20026;-96
2023/07/27 09:41:56;;;;;;;4.13;3.72;;;;;;;16.18;100.00;99715.25;7750577;22;20016;-96
2023/07/27 09:44:59;;;;;;;5.93;4.40;;;;;;;16.06;100.00;99704.44;7751165;22;20057;-96
2023/07/27 09:48:02;;;;;;;5.18;4.13;;;;;;;15.99;100.00;99700.91;7750390;22;20456;-96
2023/07/27 09:51:07;;;;;;;6.53;4.43;;;;;;;15.88;100.00;99698.72;7778895;22;20030;-96
2023/07/27 09:54:11;;;;;;;5.95;4.30;;;;;;;15.89;100.00;99695.91;7777490;22;20020;-96
2023/07/27 09:57:16;;;;;;;6.97;4.30;;;;;;;15.94;100.00;99690.97;7751943;22;20012;-96
2023/07/27 10:00:23;;;;;;;5.05;4.53;;;;;;;15.97;100.00;99697.66;7752883;22;20020;-96
2023/07/27 10:03:27;;;;;;;5.68;4.10;;;;;;;15.85;100.00;99686.84;7727503;22;20023;-96
2023/07/27 10:06:33;;;;;;;6.50;4.25;;;;;;;15.75;100.00;99695.88;7729023;22;20016;-96
2023/07/27 10:09:45;;;;;;;5.93;4.50;;;;;;;15.76;100.00;99685.28;7760447;22;20023;-96
2023/07/27 10:12:49;;;;;;;5.20;4.65;;;;;;;15.71;100.00;99688.41;7745283;22;20107;-96
2023/07/27 10:16:01;;;;;;;5.75;4.75;;;;;;;15.73;100.00;99677.00;7761669;22;20097;-96
2023/07/27 10:19:06;;;;;;;7.07;4.40;;;;;;;15.73;100.00;99672.59;7751214;22;20024;-96
2023/07/27 10:22:19;;;;;;;5.97;4.47;;;;;;;15.79;100.00;99676.28;7749790;22;20429;-96
2023/07/27 10:25:21;;;;;;;6.22;4.00;;;;;;;15.79;100.00;99676.28;7752889;22;20480;-96
2023/07/27 10:28:44;;;;;;;7.55;4.05;;;;;;;15.74;100.00;99666.38;7753251;22;20030;-96
2023/07/27 10:32:02;;;;;;;5.53;3.95;;;;;;;15.67;100.00;99662.81;7752891;22;20015;-96
2023/07/27 10:35:10;;;;;;;6.95;4.20;;;;;;;15.65;100.00;99657.78;7754458;22;20015;-96
2023/07/27 10:38:14;;;;;;;6.20;4.10;;;;;;;15.67;100.00;99660.19;7780033;22;20102;-96
2023/07/27 10:41:21;;;;;;;5.97;3.95;;;;;;;15.64;100.00;99653.53;7806880;22;20285;-96
2023/07/27 10:44:59;;;;;;;7.57;4.40;;;;;;;15.72;100.00;99652.69;7769803;22;20020;-96
2023/07/27 10:49:11;;;;;;;6.82;3.90;;;;;;;15.81;100.00;99649.03;7773369;22;20024;-96
2023/07/27 10:52:39;;;;;;;5.28;3.85;;;;;;;15.94;100.00;99645.81;7704267;23;20415;-89
2023/07/27 10:55:41;;;;;;;5.50;3.78;;;;;;;16.02;100.00;99634.47;7631069;23;20021;-89
2023/07/27 10:58:45;;;;;;;5.43;3.95;;;;;;;16.08;100.00;99634.56;7629986;23;20447;-90
2023/07/27 11:01:48;;;;;;;6.63;3.88;;;;;;;16.09;100.00;99630.16;7630622;23;20029;-90
2023/07/27 11:04:51;;;;;;;8.93;4.25;;;;;;;16.08;100.00;99626.75;7631234;23;20106;-90
2023/07/27 11:08:02;;;;;;;4.13;3.65;;;;;;;16.15;100.00;99630.25;7629103;23;20028;-90
2023/07/27 11:11:20;;;;;;;;;;;;;;;16.19;100.00;99622.88;7630743;23;20025;-91
2023/07/27 11:14:22;;;;;;;4.55;3.15;;;;;;;16.19;100.00;99620.25;7629954;23;20062;-90
2023/07/27 11:17:24;;;;;;;5.00;2.90;;;;;;;16.13;100.00;99613.97;7630824;23;20045;-90
2023/07/27 11:20:30;;;;;;;4.78;3.33;;;;;;;16.06;100.00;99618.28;7627413;23;20068;-90
2023/07/27 11:23:39;;;;;;;4.22;3.00;;;;;;;16.04;100.00;99609.81;7630784;23;20021;-90
2023/07/27 11:26:40;;;;;;;3.60;2.80;;;;;;;16.12;100.00;99612.34;7629474;23;20018;-90
2023/07/27 11:29:45;;;;;;;5.15;2.55;;;;;;;16.24;100.00;99606.66;7629565;23;20476;-90
2023/07/27 11:32:55;;;;;;;2.97;2.50;;;;;;;16.37;100.00;99596.38;7629835;23;20029;-90
2023/07/27 11:35:57;;;;;;;3.10;2.30;;;;;;;16.43;100.00;99587.84;7629263;23;20460;-90
2023/07/27 11:39:01;;;;;;;4.57;2.40;;;;;;;16.52;100.00;99581.53;7630056;23;20024;-90
2023/07/27 11:42:10;;;;;;;3.55;1.98;;;;;;;16.64;100.00;99573.19;7629698;23;20356;-90
2023/07/27 11:45:13;;;;;;;2.55;2.15;;;;;;;16.77;100.00;99586.44;7629732;23;20021;-89
2023/07/27 11:48:16;;;;;;;3.85;2.17;;;;;;;16.70;100.00;99581.13;7630539;23;20025;-90
2023/07/27 11:51:18;;;;;;;1.85;1.60;;;;;;;16.63;100.00;99574.19;7632834;23;20029;-91
2023/07/27 11:54:27;;;;;;;4.78;1.65;;;;;;;16.65;100.00;99574.84;7667684;23;20021;-91
2023/07/27 11:57:30;;;;;;;2.28;1.63;;;;;;;16.61;100.00;99573.56;7615775;23;20668;-90
2023/07/27 12:00:33;;;;;;;2.10;1.70;;;;;;;16.54;100.00;99574.28;7666722;23;20029;-90
2023/07/27 12:03:38;;;;;;;2.65;1.80;;;;;;;16.42;100.00;99581.00;7666329;23;20021;-90
2023/07/27 12:06:41;;;;;;;1.88;1.67;;;;;;;16.29;100.00;99571.16;7667268;23;20111;-91
2023/07/27 12:09:43;;;;;;;3.58;1.58;;;;;;;16.34;100.00;99573.25;7666647;23;20025;-89
2023/07/27 12:12:54;;;;;;;2.10;1.70;;;;;;;16.53;100.00;99567.44;7667306;23;20024;-89
2023/07/27 12:16:17;;;;;;;1.90;1.42;;;;;;;16.79;100.00;99569.59;7645306;23;20355;-90
2023/07/27 12:19:22;;;;;;;2.05;1.50;;;;;;;17.05;100.00;99570.03;7667421;23;20380;-89
2023/07/27 12:22:24;;;;;;;1.55;1.45;;;;;;;17.10;100.00;99557.22;7666742;23;20044;-90
2023/07/27 12:25:29;;;;;;;2.55;1.50;;;;;;;17.20;100.00;99555.88;7665269;23;20023;-90
2023/07/27 12:28:34;;;;;;;3.15;1.08;;;;;;;17.02;100.00;99558.16;7663953;23;20274;-91
2023/07/27 12:31:42;;;;;;;1.35;1.25;;;;;;;16.84;100.00;99552.53;7663394;23;20363;-92
2023/07/27 12:34:47;;;;;;;2.05;1.15;;;;;;;16.79;100.00;99558.31;7666394;23;20080;-90
2023/07/27 12:37:52;;;;;;;2.33;1.10;;;;;;;16.74;100.00;99555.41;7665955;23;20028;-89
2023/07/27 12:40:54;;;;;;;2.10;1.50;;;;;;;16.77;100.00;99549.84;7665450;23;20419;-89
2023/07/27 12:43:56;;;;;;;2.78;1.20;;;;;;;16.80;100.00;99554.72;7665214;23;20021;-89
2023/07/27 12:46:58;;;;;;;1.65;1.30;;;;;;;16.77;100.00;99555.88;7614732;23;20028;-89
2023/07/27 12:50:01;;;;;;;2.30;1.20;;;;;;;16.71;100.00;99546.13;7665900;23;20048;-89
2023/07/27 12:53:03;;;;;;;2.28;1.10;;;;;;;16.66;100.00;99540.66;7666195;23;20332;-89
2023/07/27 12:56:05;;;;;;;3.05;1.10;;;;;;;16.63;100.00;99543.66;7640053;23;20112;-89
2023/07/27 12:59:07;;;;;;;2.53;1.30;;;;;;;16.61;100.00;99540.41;7666784;23;20098;-89
2023/07/27 13:02:08;;;;;;;1.38;1.17;;;;;;;16.67;100.00;99541.47;7639675;23;20462;-89
2023/07/27 13:05:16;;;;;;;1.80;1.00;;;;;;;16.80;100.00;99544.25;7667063;23;20498;-89
2023/07/27 13:08:18;;;;;;;2.17;1.10;;;;;;;17.06;100.00;99538.47;7642421;23;20021;-95
2023/07/27 13:11:21;;;;;;;1.13;1.02;;;;;;;17.22;100.00;99538.22;7640606;23;20024;-94
2023/07/27 13:14:22;;;;;;;2.72;1.20;;;;;;;17.20;100.00;99523.69;7666616;23;20021;-94
2023/07/27 13:17:24;;;;;;;1.90;1.10;;;;;;;17.20;100.00;99518.47;7666956;23;20017;-95
2023/07/27 13:20:26;;;;;;;1.23;1.00;;;;;;;17.20;100.00;99524.50;7639605;23;20458;-95
2023/07/27 13:23:28;;;;;;;1.45;1.20;;;;;;;17.28;100.00;99520.94;7640074;23;20021;-95
2023/07/27 13:26:30;;;;;;;0.93;0.93;;;;;;;17.31;100.00;99517.94;7664605;23;20483;-94
2023/07/27 13:29:34;;;;;;;0.98;0.98;;;;;;;17.30;100.00;99516.34;7666071;23;20440;-94
2023/07/27 13:32:36;;;;;;;1.17;0.90;;;;;;;17.38;100.00;99512.78;7666461;23;20326;-94
2023/07/27 13:35:39;;;;;;;1.25;0.93;;;;;;;17.46;100.00;99517.84;7665683;23;20021;-93
2023/07/27 13:38:40;;;;;;;2.85;0.80;;;;;;;17.44;100.00;99518.06;7665665;23;20027;-93
2023/07/27 13:41:42;;;;;;;1.02;0.70;;;;;;;17.36;100.00;99506.91;7639311;23;20100;-93
2023/07/27 13:44:44;;;;;;;1.52;0.70;;;;;;;17.34;100.00;99514.97;7665991;23;20474;-95
2023/07/27 13:47:46;;;;;;;1.50;0.90;;;;;;;17.37;100.00;99522.44;7666385;23;20053;-95
2023/07/27 13:51:10;;;;;;;0.70;0.70;;;;;;;17.53;100.00;99517.91;7666501;23;20152;-94
2023/07/27 13:54:12;;;;;;;3.03;0.90;;;;;;;17.74;100.00;99512.63;7666852;23;20031;-95
2023/07/27 13:57:15;;;;;;;1.90;0.90;;;;;;;17.92;100.00;99509.50;7666319;23;20021;-95
2023/07/27 14:00:17;;;;;;;1.65;0.77;;;;;;;17.99;100.00;99506.94;7617151;23;20025;-94
2023/07/27 14:03:19;;;;;;;0.50;0.50;;;;;;;18.01;100.00;99503.13;7669204;23;20039;-93
2023/07/27 14:06:21;;;;;;;0.85;0.50;;;;;;;18.03;100.00;99501.09;7641487;23;20375;-93
2023/07/27 14:09:26;;;;;;;0.60;0.47;;;;;;;18.03;100.00;99492.44;7668341;23;20045;-93
2023/07/27 14:12:28;;;;;;;0.55;0.50;;;;;;;18.06;100.00;99502.50;7641814;23;20025;-94
2023/07/27 14:15:30;;;;;;;0.65;0.50;;;;;;;18.00;100.00;99498.06;7669100;23;20017;-94
2023/07/27 14:18:34;;;;;;;1.13;0.50;;;;;;;17.80;100.00;99496.16;7637659;23;20135;-93
2023/07/27 14:21:36;;;;;;;0.40;0.35;;;;;;;17.55;100.00;99497.59;7667216;23;20025;-93